Les ailes du Grand Prix

Rédigé par Admin - 28 juin 2016


Le samedi 25 juin 2016, nous avons eu l'honneur d'accueillir "les ailes du Grand Prix" qui regroupa une vingtaine d'avions de collection. Cette escadrille s'est regroupée pour aller faire honneur aux gentleman driver et leurs 202 véhicules d'exceptions, venues sur le domaine du Golf de Roiffé. Cette manifestation s'est déroulée dans le cadre du Grand Prix de Tours qui s'est relocalisé à Chinon (37) en 2016.

Classé dans : Non classé - Mots clés : aucun

A propos de l'auteur:

Pilote et webmaster de ce site.

Écrire un commentaire

Quelle est la dernière lettre du mot qoffun ? : 



Webcam :

Nuit aéronautique

16 Dec 2018

Heure locale,
pour LFDL uniquement.

Lever du soleil aéronautique :08:11
Lever du soleil :08:41
Coucher du soleil :17:09
Coucher du soleil aéronautique :17:39

Metar

LFBI :
2018/12/16 15:00
LFBI 161500Z AUTO 16009KT 9999 BKN008 BKN013 09/08 Q1011 TEMPO 26015G25KT 2500 SHRA BKN015TCU
LFBI :
Poitiers, France (LFBI) 46-35N 000-19E 120M
Dec 16, 2018 - 10:00 AM EST / 2018.12.16 1500 UTC
Wind: from the SSE (160 degrees) at 10 MPH (9 KT):0
Visibility: greater than 7 mile(s):0
Sky conditions: mostly cloudy
Weather: Towering cumulus clouds observed
Temperature: 48 F (9 C)
Dew Point: 46 F (8 C)
Relative Humidity: 93%
Pressure (altimeter): 29.85 in. Hg (1011 hPa)
ob: LFBI 161500Z AUTO 16009KT 9999 BKN008 BKN013 09/08 Q1011 TEMPO 26015G25KT 2500 SHRA BKN015TCU
cycle: 15

Afficher le metar d'une autre station :
Code OACI :

Aéroclub de Loudun


Bellevue
86200 Loudun


Contacter Michel Richez (président)

  • Mail:michel.richez@free.fr
  • Tel:09-50-38-02-06
  • Mobile:06-52-73-09-01



agrandir le plan

Newsletter

Mon e-mail :